createdAt,value
2022-11-13T00:01:11.071Z,102678.31
2022-11-13T00:02:47.221Z,102663.13
2022-11-13T00:04:27.820Z,102661.19
2022-11-13T00:06:10.272Z,102671.31
2022-11-13T00:07:46.574Z,102669.25
2022-11-13T00:09:22.499Z,102660.47
2022-11-13T00:11:02.733Z,102663.53
2022-11-13T00:12:39.780Z,102658.94
2022-11-13T00:14:14.862Z,102657.16
2022-11-13T00:15:58.250Z,102667.47
2022-11-13T00:17:33.415Z,102656.34
2022-11-13T00:19:09.204Z,102661.34
2022-11-13T00:20:44.687Z,102650.78
2022-11-13T00:22:20.695Z,102653.00
2022-11-13T00:23:56.934Z,102656.03
2022-11-13T00:25:35.929Z,102651.88
2022-11-13T00:27:10.886Z,102648.97
2022-11-13T00:28:47.775Z,102635.44
2022-11-13T00:30:23.081Z,102638.78
2022-11-13T00:31:58.863Z,102639.63
2022-11-13T00:35:31.584Z,102634.09
2022-11-13T00:37:06.848Z,102627.97
2022-11-13T00:38:42.352Z,102621.31
2022-11-13T00:40:20.717Z,102630.22
2022-11-13T00:41:56.533Z,102622.44
2022-11-13T00:43:31.901Z,102620.47
2022-11-13T00:45:11.199Z,102611.28
2022-11-13T00:46:47.085Z,102610.47
2022-11-13T00:48:23.526Z,102611.84
2022-11-13T00:49:58.027Z,102606.84
2022-11-13T00:51:35.090Z,102601.00
2022-11-13T00:53:15.225Z,102609.31
2022-11-13T00:54:53.382Z,102605.16
2022-11-13T00:56:29.135Z,102608.63
2022-11-13T00:58:04.449Z,102599.16
2022-11-13T00:59:39.808Z,102600.03
2022-11-13T01:01:22.372Z,102596.53
2022-11-13T01:02:59.090Z,102606.13
2022-11-13T01:04:39.920Z,102601.69
2022-11-13T01:06:23.946Z,102614.31
2022-11-13T01:07:59.024Z,102592.94
2022-11-13T01:09:34.526Z,102603.22
2022-11-13T01:11:17.881Z,102597.63
2022-11-13T01:12:53.220Z,102598.06
2022-11-13T01:14:28.477Z,102594.16
2022-11-13T01:16:07.321Z,102596.81
2022-11-13T01:17:44.554Z,102592.09
2022-11-13T01:19:20.029Z,102592.19
2022-11-13T01:21:04.031Z,102591.72
2022-11-13T01:22:40.243Z,102588.09
2022-11-13T01:24:17.435Z,102587.22
2022-11-13T01:25:52.943Z,102594.22
2022-11-13T01:27:28.351Z,102588.72
2022-11-13T01:29:04.281Z,102589.97
2022-11-13T01:30:40.092Z,102587.09
2022-11-13T01:32:16.439Z,102589.03
2022-11-13T01:33:53.790Z,102584.00
2022-11-13T01:35:29.820Z,102580.28
2022-11-13T01:37:05.814Z,102587.91
2022-11-13T01:38:41.450Z,102588.16
2022-11-13T01:40:18.141Z,102587.88
2022-11-13T01:41:54.153Z,102587.19
2022-11-13T01:43:32.502Z,102585.34
2022-11-13T01:46:05.199Z,102581.66
2022-11-13T01:47:40.929Z,102582.28
2022-11-13T01:49:30.569Z,102586.59
2022-11-13T01:51:18.834Z,102578.31
2022-11-13T01:52:54.701Z,102576.69
2022-11-13T01:54:36.508Z,102587.81
2022-11-13T01:56:14.572Z,102588.38
2022-11-13T01:57:50.838Z,102584.47
2022-11-13T01:59:30.529Z,102584.59
2022-11-13T02:01:09.312Z,102574.63
2022-11-13T02:02:45.209Z,102581.31
2022-11-13T02:04:28.860Z,102576.38
2022-11-13T02:06:10.284Z,102578.09
2022-11-13T02:07:46.583Z,102573.03
2022-11-13T02:09:26.673Z,102564.88
2022-11-13T02:11:03.140Z,102557.88
2022-11-13T02:12:43.491Z,102564.56
2022-11-13T02:14:22.775Z,102568.22
2022-11-13T02:15:58.296Z,102567.53
2022-11-13T02:17:40.444Z,102564.59
2022-11-13T02:19:25.630Z,102568.06
2022-11-13T02:21:15.273Z,102568.06
2022-11-13T02:23:00.957Z,102562.31
2022-11-13T02:24:44.819Z,102552.81
2022-11-13T02:26:23.752Z,102563.84
2022-11-13T02:27:59.163Z,102559.50
2022-11-13T02:29:34.644Z,102549.66
2022-11-13T02:31:15.435Z,102556.84
2022-11-13T02:32:54.241Z,102541.56
2022-11-13T02:34:30.186Z,102551.16
2022-11-13T02:36:07.758Z,102552.56
2022-11-13T02:37:43.346Z,102544.00
2022-11-13T02:39:18.750Z,102546.28
2022-11-13T02:40:54.838Z,102544.34
2022-11-13T02:42:30.065Z,102545.59
2022-11-13T02:44:05.962Z,102550.59
2022-11-13T02:45:40.932Z,102545.44
2022-11-13T02:47:15.723Z,102541.84
2022-11-13T02:48:51.080Z,102531.84
2022-11-13T02:50:26.541Z,102531.88
2022-11-13T02:52:01.802Z,102531.28
2022-11-13T02:53:37.011Z,102532.38
2022-11-13T02:55:12.017Z,102525.75
2022-11-13T02:56:48.559Z,102527.28
2022-11-13T02:58:23.830Z,102522.97
2022-11-13T02:59:59.371Z,102514.88
2022-11-13T03:01:35.745Z,102520.59
2022-11-13T03:03:29.051Z,102524.47
2022-11-13T03:05:17.136Z,102526.94
2022-11-13T03:06:57.967Z,102525.97
2022-11-13T03:08:34.035Z,102521.53
2022-11-13T03:10:11.584Z,102521.84
2022-11-13T03:11:48.032Z,102522.81
2022-11-13T03:13:23.546Z,102516.81
2022-11-13T03:14:58.833Z,102508.38
2022-11-13T03:16:35.148Z,102505.63
2022-11-13T03:18:10.707Z,102509.09
2022-11-13T03:19:46.291Z,102504.91
2022-11-13T03:21:26.819Z,102501.88
2022-11-13T03:23:02.452Z,102501.34
2022-11-13T03:24:38.593Z,102497.97
2022-11-13T03:26:17.413Z,102503.94
2022-11-13T03:27:54.749Z,102506.63
2022-11-13T03:29:29.995Z,102500.81
2022-11-13T03:31:08.599Z,102516.16
2022-11-13T03:32:43.899Z,102512.81
2022-11-13T03:34:19.946Z,102508.25
2022-11-13T03:35:54.953Z,102508.69
2022-11-13T03:37:30.668Z,102502.41
2022-11-13T03:39:06.829Z,102505.16
2022-11-13T03:40:42.651Z,102505.63
2022-11-13T03:42:18.679Z,102501.13
2022-11-13T03:43:55.283Z,102497.22
2022-11-13T03:45:30.000Z,102497.31
2022-11-13T03:47:04.890Z,102499.47
2022-11-13T03:48:41.452Z,102495.56
2022-11-13T03:50:16.734Z,102496.91
2022-11-13T03:51:52.550Z,102500.81
2022-11-13T03:53:28.188Z,102492.59
2022-11-13T03:55:02.753Z,102499.72
2022-11-13T03:56:37.906Z,102490.94
2022-11-13T03:58:12.932Z,102502.66
2022-11-13T03:59:49.783Z,102498.53
2022-11-13T04:01:30.650Z,102503.25
2022-11-13T04:03:08.379Z,102495.91
2022-11-13T04:04:48.789Z,102498.81
2022-11-13T04:06:29.683Z,102490.34
2022-11-13T04:08:05.807Z,102503.25
2022-11-13T04:09:41.028Z,102499.25
2022-11-13T04:11:21.761Z,102491.47
2022-11-13T04:12:56.723Z,102495.50
2022-11-13T04:14:31.979Z,102488.13
2022-11-13T04:16:08.690Z,102491.34
2022-11-13T04:17:43.868Z,102484.81
2022-11-13T04:19:18.859Z,102493.53
2022-11-13T04:20:58.167Z,102488.69
2022-11-13T04:22:32.677Z,102489.22
2022-11-13T04:24:07.518Z,102483.13
2022-11-13T04:25:42.766Z,102484.66
2022-11-13T04:27:18.137Z,102486.31
2022-11-13T04:28:53.328Z,102485.75
2022-11-13T04:30:28.495Z,102470.88
2022-11-13T04:32:06.542Z,102478.94
2022-11-13T04:33:41.911Z,102481.00
2022-11-13T04:35:17.774Z,102477.97
2022-11-13T04:36:52.935Z,102470.19
2022-11-13T04:38:28.686Z,102474.53
2022-11-13T04:40:05.063Z,102472.16
2022-11-13T04:41:41.196Z,102475.78
2022-11-13T04:43:15.724Z,102468.56
2022-11-13T04:44:52.094Z,102472.88
2022-11-13T04:46:26.850Z,102474.19
2022-11-13T04:48:02.811Z,102471.13
2022-11-13T04:49:38.460Z,102468.63
2022-11-13T04:51:18.952Z,102467.78
2022-11-13T04:52:53.962Z,102471.25
2022-11-13T04:54:29.255Z,102478.72
2022-11-13T04:56:04.340Z,102471.81
2022-11-13T04:57:39.785Z,102476.56
2022-11-13T04:59:15.335Z,102474.66
2022-11-13T05:00:50.430Z,102465.47
2022-11-13T05:02:26.240Z,102469.09
2022-11-13T05:04:12.181Z,102476.72
2022-11-13T05:05:52.770Z,102463.28
2022-11-13T05:07:28.715Z,102469.78
2022-11-13T05:09:04.725Z,102461.47
2022-11-13T05:10:40.112Z,102459.53
2022-11-13T05:12:15.811Z,102454.53
2022-11-13T05:13:51.289Z,102460.22
2022-11-13T05:15:27.464Z,102454.94
2022-11-13T05:17:02.324Z,102456.59
2022-11-13T05:18:39.236Z,102455.38
2022-11-13T05:20:17.317Z,102449.66
2022-11-13T05:21:52.714Z,102450.78
2022-11-13T05:23:27.805Z,102446.59
2022-11-13T05:25:02.940Z,102447.28
2022-11-13T05:26:39.323Z,102448.09
2022-11-13T05:28:14.334Z,102446.13
2022-11-13T05:29:48.830Z,102442.19
2022-11-13T05:31:29.596Z,102439.31
2022-11-13T05:33:04.659Z,102439.81
2022-11-13T05:34:40.494Z,102435.50
2022-11-13T05:36:18.428Z,102431.00
2022-11-13T05:37:54.092Z,102425.59
2022-11-13T05:39:29.099Z,102428.22
2022-11-13T05:41:06.759Z,102430.47
2022-11-13T05:42:42.531Z,102426.28
2022-11-13T05:44:17.270Z,102426.59
2022-11-13T05:45:58.588Z,102416.41
2022-11-13T05:47:33.819Z,102411.41
2022-11-13T05:49:10.419Z,102413.97
2022-11-13T05:50:45.426Z,102413.84
2022-11-13T05:52:21.787Z,102408.00
2022-11-13T05:53:57.955Z,102407.47
2022-11-13T05:55:33.398Z,102402.00
2022-11-13T05:57:08.827Z,102405.75
2022-11-13T05:58:45.881Z,102407.47
2022-11-13T06:00:21.656Z,102403.91
2022-11-13T06:01:59.567Z,102412.84
2022-11-13T06:03:40.616Z,102415.06
2022-11-13T06:05:21.440Z,102414.06
2022-11-13T06:07:02.211Z,102406.03
2022-11-13T06:08:39.112Z,102410.03
2022-11-13T06:10:15.582Z,102410.16
2022-11-13T06:11:52.053Z,102400.75
2022-11-13T06:13:29.066Z,102398.00
2022-11-13T06:15:08.235Z,102394.69
2022-11-13T06:16:43.442Z,102396.75
2022-11-13T06:18:26.516Z,102399.31
2022-11-13T06:20:02.712Z,102389.13
2022-11-13T06:21:40.466Z,102392.28
2022-11-13T06:23:15.199Z,102391.94
2022-11-13T06:24:51.500Z,102392.63
2022-11-13T06:26:29.780Z,102391.53
2022-11-13T06:28:04.846Z,102385.22
2022-11-13T06:29:39.644Z,102394.78
2022-11-13T06:31:23.631Z,102394.91
2022-11-13T06:32:58.901Z,102387.53
2022-11-13T06:34:33.712Z,102388.06
2022-11-13T06:36:13.710Z,102387.81
2022-11-13T06:37:48.877Z,102385.50
2022-11-13T06:39:23.664Z,102385.78
2022-11-13T06:41:01.744Z,102385.06
2022-11-13T06:42:37.318Z,102386.88
2022-11-13T06:44:12.084Z,102386.47
2022-11-13T06:45:47.774Z,102386.34
2022-11-13T06:47:22.679Z,102386.88
2022-11-13T06:48:58.659Z,102379.41
2022-11-13T06:50:33.495Z,102388.84
2022-11-13T06:52:07.929Z,102386.47
2022-11-13T06:53:42.356Z,102380.88
2022-11-13T06:55:16.885Z,102389.13
2022-11-13T06:56:53.516Z,102373.41
2022-11-13T06:58:29.884Z,102379.50
2022-11-13T07:00:07.253Z,102379.28
2022-11-13T07:01:43.877Z,102378.84
2022-11-13T07:03:27.441Z,102377.47
2022-11-13T07:05:08.539Z,102375.97
2022-11-13T07:06:49.447Z,102377.25
2022-11-13T07:08:25.454Z,102377.72
2022-11-13T07:10:01.013Z,102381.31
2022-11-13T07:11:37.913Z,102374.09
2022-11-13T07:13:14.514Z,102371.34
2022-11-13T07:14:50.319Z,102371.63
2022-11-13T07:16:26.298Z,102372.34
2022-11-13T07:18:07.445Z,102378.03
2022-11-13T07:19:41.855Z,102371.38
2022-11-13T07:21:23.071Z,102375.13
2022-11-13T07:22:58.050Z,102365.81
2022-11-13T07:24:33.472Z,102367.06
2022-11-13T07:26:10.110Z,102366.38
2022-11-13T07:27:45.479Z,102366.81
2022-11-13T07:29:21.563Z,102366.25
2022-11-13T07:30:57.861Z,102356.81
2022-11-13T07:32:33.837Z,102360.44
2022-11-13T07:34:08.420Z,102356.94
2022-11-13T07:35:44.110Z,102355.28
2022-11-13T07:37:19.154Z,102345.56
2022-11-13T07:38:59.261Z,102354.72
2022-11-13T07:40:34.969Z,102352.91
2022-11-13T07:42:10.054Z,102355.53
2022-11-13T07:43:45.550Z,102359.16
2022-11-13T07:45:22.206Z,102359.03
2022-11-13T07:46:57.798Z,102359.16
2022-11-13T07:48:32.690Z,102350.56
2022-11-13T07:50:10.988Z,102365.69
2022-11-13T07:51:47.587Z,102369.44
2022-11-13T07:53:22.864Z,102360.81
2022-11-13T07:54:58.114Z,102363.03
2022-11-13T07:56:32.789Z,102356.53
2022-11-13T07:58:07.455Z,102359.03
2022-11-13T07:59:42.777Z,102354.59
2022-11-13T08:01:25.345Z,102357.50
2022-11-13T08:03:12.063Z,102358.88
2022-11-13T08:04:52.891Z,102367.78
2022-11-13T08:06:36.248Z,102362.50
2022-11-13T08:08:13.069Z,102363.63
2022-11-13T08:09:48.017Z,102359.84
2022-11-13T08:11:28.611Z,102361.13
2022-11-13T08:13:08.798Z,102363.75
2022-11-13T08:14:43.581Z,102369.03
2022-11-13T08:16:18.114Z,102369.03
2022-11-13T08:17:55.779Z,102368.31
2022-11-13T08:19:30.919Z,102361.13
2022-11-13T08:21:14.523Z,102370.13
2022-11-13T08:22:51.788Z,102370.69
2022-11-13T08:24:26.383Z,102366.38
2022-11-13T08:26:05.872Z,102359.44
2022-11-13T08:27:41.082Z,102365.84
2022-11-13T08:29:15.857Z,102359.47
2022-11-13T08:30:51.184Z,102361.66
2022-11-13T08:32:25.817Z,102356.41
2022-11-13T08:34:01.792Z,102357.78
2022-11-13T08:35:36.344Z,102350.97
2022-11-13T08:37:11.677Z,102361.25
2022-11-13T08:38:48.440Z,102351.13
2022-11-13T08:40:22.951Z,102350.16
2022-11-13T08:41:58.018Z,102357.22
2022-11-13T08:43:32.526Z,102354.16
2022-11-13T08:45:09.832Z,102352.78
2022-11-13T08:46:44.948Z,102341.53
2022-11-13T08:48:20.323Z,102349.59
2022-11-13T08:49:57.215Z,102350.56
2022-11-13T08:51:33.721Z,102345.72
2022-11-13T08:53:09.919Z,102348.75
2022-11-13T08:54:44.533Z,102343.91
2022-11-13T08:56:19.527Z,102340.28
2022-11-13T08:57:57.949Z,102340.72
2022-11-13T08:59:32.351Z,102336.13
2022-11-13T09:01:12.376Z,102341.13
2022-11-13T09:02:48.114Z,102338.88
2022-11-13T09:04:28.640Z,102326.09
2022-11-13T09:06:10.849Z,102335.56
2022-11-13T09:07:47.207Z,102331.53
2022-11-13T09:09:23.220Z,102321.09
2022-11-13T09:11:03.613Z,102321.66
2022-11-13T09:12:39.523Z,102320.41
2022-11-13T09:14:14.670Z,102315.56
2022-11-13T09:15:49.954Z,102317.63
2022-11-13T09:17:24.661Z,102311.25
2022-11-13T09:18:59.429Z,102313.06
2022-11-13T09:20:34.897Z,102309.44
2022-11-13T09:22:12.270Z,102303.03
2022-11-13T09:23:47.360Z,102308.03
2022-11-13T09:25:22.436Z,102307.72
2022-11-13T09:26:57.890Z,102309.69
2022-11-13T09:28:33.518Z,102304.66
2022-11-13T09:30:09.790Z,102306.72
2022-11-13T09:31:46.565Z,102306.72
2022-11-13T09:33:22.037Z,102302.28
2022-11-13T09:34:57.659Z,102304.88
2022-11-13T09:36:32.096Z,102307.91
2022-11-13T09:38:11.780Z,102308.44
2022-11-13T09:39:47.646Z,102306.94
2022-11-13T09:41:32.595Z,102303.72
2022-11-13T09:43:23.363Z,102301.59
2022-11-13T09:45:06.384Z,102298.63
2022-11-13T09:46:45.221Z,102291.53
2022-11-13T09:48:21.375Z,102294.00
2022-11-13T09:50:04.634Z,102294.69
2022-11-13T09:51:40.442Z,102283.72
2022-11-13T09:53:17.543Z,102285.22
2022-11-13T09:54:53.504Z,102277.63
2022-11-13T09:56:34.364Z,102288.47
2022-11-13T09:58:19.225Z,102291.75
2022-11-13T10:00:01.925Z,102294.78
2022-11-13T10:01:49.828Z,102293.84
2022-11-13T10:05:46.258Z,102298.25
2022-11-13T10:07:36.369Z,102301.78
2022-11-13T10:09:24.460Z,102299.28
2022-11-13T10:11:09.248Z,102300.59
2022-11-13T10:12:46.950Z,102290.97
2022-11-13T10:14:28.913Z,102284.41
2022-11-13T10:16:14.064Z,102291.06
2022-11-13T10:17:56.398Z,102281.22
2022-11-13T10:19:36.039Z,102281.38
2022-11-13T10:21:13.293Z,102287.34
2022-11-13T10:22:51.923Z,102283.50
2022-11-13T10:24:35.122Z,102283.78
2022-11-13T10:26:15.603Z,102280.50
2022-11-13T10:27:56.315Z,102281.34
2022-11-13T10:29:31.276Z,102276.88
2022-11-13T10:31:11.670Z,102276.56
2022-11-13T10:32:48.730Z,102270.53
2022-11-13T10:34:23.791Z,102272.72
2022-11-13T10:36:08.044Z,102269.75
2022-11-13T10:37:59.278Z,102262.34
2022-11-13T10:39:43.808Z,102267.09
2022-11-13T10:41:24.554Z,102265.66
2022-11-13T10:43:13.891Z,102263.56
2022-11-13T10:44:55.871Z,102264.22
2022-11-13T10:46:31.670Z,102260.63
2022-11-13T10:48:07.947Z,102256.69
2022-11-13T10:49:43.498Z,102258.34
2022-11-13T10:51:27.682Z,102258.00
2022-11-13T10:53:02.501Z,102250.25
2022-11-13T10:54:36.519Z,102250.41
2022-11-13T10:56:27.207Z,102254.28
2022-11-13T10:58:04.597Z,102247.47
2022-11-13T10:59:41.548Z,102240.00
2022-11-13T11:01:23.990Z,102241.97
2022-11-13T11:02:58.903Z,102241.34
2022-11-13T11:04:39.573Z,102226.28
2022-11-13T11:06:20.257Z,102234.44
2022-11-13T11:07:57.192Z,102230.31
2022-11-13T11:09:33.122Z,102226.34
2022-11-13T11:11:18.316Z,102225.75
2022-11-13T11:12:57.191Z,102224.75
2022-11-13T11:14:38.557Z,102221.16
2022-11-13T11:16:21.483Z,102212.88
2022-11-13T11:18:02.421Z,102205.94
2022-11-13T11:19:40.955Z,102206.78
2022-11-13T11:21:28.869Z,102208.25
2022-11-13T11:23:23.074Z,102205.94
2022-11-13T11:25:09.224Z,102201.78
2022-11-13T11:26:51.835Z,102198.00
2022-11-13T11:28:35.836Z,102198.47
2022-11-13T11:30:19.972Z,102189.03
2022-11-13T11:32:01.918Z,102187.38
2022-11-13T11:33:48.678Z,102178.41
2022-11-13T11:35:31.675Z,102179.41
2022-11-13T11:37:14.173Z,102172.44
2022-11-13T11:38:56.052Z,102171.78
2022-11-13T11:40:37.972Z,102170.97
2022-11-13T11:42:28.654Z,102167.81
2022-11-13T11:44:18.247Z,102162.00
2022-11-13T11:45:53.283Z,102157.03
2022-11-13T11:47:28.845Z,102152.56
2022-11-13T11:49:04.725Z,102154.72
2022-11-13T11:50:48.734Z,102149.09
2022-11-13T11:52:59.867Z,102138.31
2022-11-13T11:54:44.080Z,102132.81
2022-11-13T11:56:31.227Z,102137.44
2022-11-13T11:58:29.814Z,102132.13
2022-11-13T12:00:12.029Z,102140.25
2022-11-13T12:02:36.053Z,102135.06
2022-11-13T12:04:35.031Z,102140.97
2022-11-13T12:06:23.981Z,102131.06
2022-11-13T12:08:11.492Z,102134.56
2022-11-13T12:09:56.734Z,102132.56
2022-11-13T12:11:39.290Z,102128.84
2022-11-13T12:13:27.189Z,102132.44
2022-11-13T12:15:10.421Z,102124.91
2022-11-13T12:17:20.887Z,102119.03
2022-11-13T12:19:04.331Z,102109.94
2022-11-13T12:20:49.199Z,102110.94
2022-11-13T12:22:35.091Z,102114.13
2022-11-13T12:24:37.980Z,102098.03
2022-11-13T12:26:22.559Z,102096.88
2022-11-13T12:28:04.606Z,102099.91
2022-11-13T12:29:53.997Z,102088.72
2022-11-13T12:31:53.655Z,102086.41
2022-11-13T12:33:44.259Z,102086.41
2022-11-13T12:35:22.766Z,102083.03
2022-11-13T12:36:58.863Z,102080.59
2022-11-13T12:38:45.836Z,102080.00
2022-11-13T12:40:31.043Z,102080.41
2022-11-13T12:42:20.008Z,102063.25
2022-11-13T12:44:23.580Z,102066.13
2022-11-13T12:46:06.580Z,102065.00
2022-11-13T12:47:42.069Z,102061.59
2022-11-13T12:49:30.656Z,102070.25
2022-11-13T12:51:08.502Z,102064.44
2022-11-13T12:52:44.346Z,102061.78
2022-11-13T12:54:27.144Z,102056.59
2022-11-13T12:56:02.984Z,102057.66
2022-11-13T12:57:47.659Z,102057.59
2022-11-13T12:59:34.104Z,102054.84
2022-11-13T13:01:18.556Z,102053.06
2022-11-13T13:03:15.531Z,102046.84
2022-11-13T13:05:13.901Z,102032.16
2022-11-13T13:07:10.378Z,102035.78
2022-11-13T13:09:23.631Z,102042.84
2022-11-13T13:11:13.074Z,102032.44
2022-11-13T13:12:59.558Z,102033.09
2022-11-13T13:14:56.955Z,102039.94
2022-11-13T13:16:31.749Z,102038.94
2022-11-13T13:18:12.000Z,102040.06
2022-11-13T13:19:58.757Z,102036.66
2022-11-13T13:21:42.276Z,102027.38
2022-11-13T13:23:28.636Z,102027.03
2022-11-13T13:25:10.598Z,102027.38
2022-11-13T13:26:48.535Z,102027.63
2022-11-13T13:28:24.198Z,102024.66
2022-11-13T13:30:00.905Z,102019.50
2022-11-13T13:31:49.390Z,102023.88
2022-11-13T13:33:52.872Z,102020.69
2022-11-13T13:35:36.709Z,102011.84
2022-11-13T13:37:25.458Z,102010.31
2022-11-13T13:39:11.826Z,102006.59
2022-11-13T13:41:16.089Z,102008.13
2022-11-13T13:43:14.571Z,102004.56
2022-11-13T13:45:25.597Z,102013.03
2022-11-13T13:47:10.924Z,102006.34
2022-11-13T13:48:49.671Z,102004.28
2022-11-13T13:50:27.930Z,102005.34
2022-11-13T13:52:05.298Z,102008.09
2022-11-13T13:53:41.238Z,102005.66
2022-11-13T13:55:22.485Z,102006.31
2022-11-13T13:56:58.446Z,102000.78
2022-11-13T13:58:37.655Z,102005.88
2022-11-13T14:00:15.947Z,101998.00
2022-11-13T14:01:56.290Z,101998.06
2022-11-13T14:03:37.552Z,101993.34
2022-11-13T14:05:27.729Z,101996.03
2022-11-13T14:07:21.860Z,101993.19
2022-11-13T14:09:08.197Z,101991.13
2022-11-13T14:10:42.763Z,101994.81
2022-11-13T14:12:20.153Z,101983.31
2022-11-13T14:13:55.187Z,101987.03
2022-11-13T14:15:32.924Z,101991.94
2022-11-13T14:17:11.145Z,101990.97
2022-11-13T14:18:45.890Z,101989.28
2022-11-13T14:20:21.425Z,101994.63
2022-11-13T14:22:01.222Z,101994.81
2022-11-13T14:23:42.886Z,101980.84
2022-11-13T14:25:23.989Z,101990.72
2022-11-13T14:27:00.091Z,101990.28
2022-11-13T14:28:53.268Z,101986.16
2022-11-13T14:30:31.013Z,101991.88
2022-11-13T14:32:13.307Z,101989.63
2022-11-13T14:33:50.098Z,101985.69
2022-11-13T14:35:27.498Z,101984.94
2022-11-13T14:37:21.271Z,101992.13
2022-11-13T14:38:57.464Z,101988.91
2022-11-13T14:40:36.937Z,101985.59
2022-11-13T14:42:18.602Z,101983.75
2022-11-13T14:43:53.764Z,101986.25
2022-11-13T14:45:32.560Z,101981.03
2022-11-13T14:47:26.293Z,101979.31
2022-11-13T14:49:02.172Z,101979.94
2022-11-13T14:50:51.784Z,101983.22
2022-11-13T14:52:30.206Z,101983.56
2022-11-13T14:54:08.946Z,101975.59
2022-11-13T14:55:52.798Z,101972.25
2022-11-13T14:57:31.759Z,101972.97
2022-11-13T14:59:14.347Z,101980.34
2022-11-13T15:00:55.859Z,101986.78
2022-11-13T15:02:35.565Z,101981.09
2022-11-13T15:04:24.549Z,101970.06
2022-11-13T15:06:14.015Z,101967.75
2022-11-13T15:07:49.674Z,101966.47
2022-11-13T15:09:27.900Z,101960.25
2022-11-13T15:11:12.675Z,101963.19
2022-11-13T15:12:48.281Z,101963.44
2022-11-13T15:14:26.623Z,101957.28
2022-11-13T15:16:02.317Z,101948.69
2022-11-13T15:17:37.099Z,101956.25
2022-11-13T15:19:28.178Z,101954.25
2022-11-13T15:21:06.903Z,101947.19
2022-11-13T15:22:43.132Z,101947.63
2022-11-13T15:24:19.093Z,101947.44
2022-11-13T15:25:54.165Z,101950.06
2022-11-13T15:27:30.332Z,101945.94
2022-11-13T15:29:06.605Z,101947.31
2022-11-13T15:30:41.481Z,101952.16
2022-11-13T15:32:16.610Z,101944.47
2022-11-13T15:33:53.261Z,101950.38
2022-11-13T15:35:29.973Z,101944.91
2022-11-13T15:37:12.453Z,101944.75
2022-11-13T15:38:47.804Z,101944.88
2022-11-13T15:40:23.273Z,101932.00
2022-11-13T15:42:07.350Z,101934.41
2022-11-13T15:43:47.789Z,101933.38
2022-11-13T15:45:23.689Z,101936.31
2022-11-13T15:46:59.832Z,101932.75
2022-11-13T15:48:39.833Z,101932.25
2022-11-13T15:50:16.331Z,101929.78
2022-11-13T15:51:53.829Z,101924.00
2022-11-13T15:53:31.884Z,101929.69
2022-11-13T15:55:22.266Z,101927.78
2022-11-13T15:56:57.707Z,101922.81
2022-11-13T15:58:34.697Z,101929.06
2022-11-13T16:00:16.252Z,101926.03
2022-11-13T16:01:56.776Z,101931.63
2022-11-13T16:03:38.680Z,101928.97
2022-11-13T16:05:19.388Z,101931.16
2022-11-13T16:07:00.191Z,101928.41
2022-11-13T16:08:37.296Z,101912.91
2022-11-13T16:10:15.466Z,101919.06
2022-11-13T16:11:50.731Z,101920.16
2022-11-13T16:13:26.454Z,101919.78
2022-11-13T16:15:03.496Z,101920.78
2022-11-13T16:16:40.684Z,101918.31
2022-11-13T16:18:26.137Z,101922.16
2022-11-13T16:20:01.548Z,101918.13
2022-11-13T16:21:36.526Z,101920.63
2022-11-13T16:23:18.397Z,101913.38
2022-11-13T16:24:55.401Z,101919.28
2022-11-13T16:26:26.492Z,101920.91
2022-11-13T16:27:47.911Z,101914.78
2022-11-13T16:29:24.566Z,101926.66
2022-11-13T16:30:59.936Z,101918.78
2022-11-13T16:32:35.252Z,101914.88
2022-11-13T16:34:10.884Z,101911.75
2022-11-13T16:35:48.168Z,101910.22
2022-11-13T16:37:24.650Z,101906.44
2022-11-13T16:38:59.947Z,101908.69
2022-11-13T16:40:36.688Z,101908.59
2022-11-13T16:42:13.132Z,101898.72
2022-11-13T16:43:48.683Z,101900.47
2022-11-13T16:45:24.696Z,101897.38
2022-11-13T16:47:00.084Z,101899.44
2022-11-13T16:48:35.863Z,101886.84
2022-11-13T16:50:14.881Z,101884.97
2022-11-13T16:51:49.821Z,101884.97
2022-11-13T16:53:25.298Z,101884.97
2022-11-13T16:55:06.455Z,101882.97
2022-11-13T16:56:44.582Z,101890.59
2022-11-13T16:58:19.725Z,101880.50
2022-11-13T16:59:55.248Z,101880.13
2022-11-13T17:01:34.130Z,101882.94
2022-11-13T17:03:14.562Z,101873.91
2022-11-13T17:04:56.478Z,101883.78
2022-11-13T17:06:37.356Z,101886.06
2022-11-13T17:08:13.172Z,101875.72
2022-11-13T17:09:58.888Z,101880.81
2022-11-13T17:11:46.198Z,101882.06
2022-11-13T17:13:21.779Z,101881.13
2022-11-13T17:14:58.245Z,101878.16
2022-11-13T17:16:34.034Z,101868.56
2022-11-13T17:18:09.535Z,101877.03
2022-11-13T17:19:44.960Z,101865.59
2022-11-13T17:21:28.111Z,101869.59
2022-11-13T17:23:04.103Z,101857.63
2022-11-13T17:24:39.616Z,101852.03
2022-11-13T17:26:16.262Z,101859.38
2022-11-13T17:27:52.965Z,101853.06
2022-11-13T17:29:29.773Z,101857.84
2022-11-13T17:31:10.183Z,101854.06
2022-11-13T17:32:47.304Z,101858.03
2022-11-13T17:34:26.518Z,101842.81
2022-11-13T17:36:02.199Z,101850.63
2022-11-13T17:37:37.958Z,101847.50
2022-11-13T17:39:13.694Z,101852.44
2022-11-13T17:40:50.143Z,101850.00
2022-11-13T17:42:25.432Z,101846.81
2022-11-13T17:44:02.531Z,101844.44
2022-11-13T17:45:38.698Z,101840.84
2022-11-13T17:47:14.244Z,101840.53
2022-11-13T17:48:51.623Z,101829.56
2022-11-13T17:50:27.002Z,101828.78
2022-11-13T17:52:03.514Z,101835.56
2022-11-13T17:53:39.454Z,101834.66
2022-11-13T17:55:15.412Z,101838.94
2022-11-13T17:56:52.436Z,101832.47
2022-11-13T17:58:29.359Z,101836.97
2022-11-13T18:00:10.723Z,101840.66
2022-11-13T18:01:45.977Z,101840.75
2022-11-13T18:03:27.678Z,101848.56
2022-11-13T18:05:08.637Z,101844.50
2022-11-13T18:06:30.698Z,101838.53
2022-11-13T18:08:06.536Z,101844.00
2022-11-13T18:09:45.643Z,101856.63
2022-11-13T18:11:28.822Z,101858.47
2022-11-13T18:13:06.884Z,101850.03
2022-11-13T18:14:42.570Z,101855.50
2022-11-13T18:16:25.033Z,101844.44
2022-11-13T18:18:01.953Z,101849.25
2022-11-13T18:19:37.527Z,101852.38
2022-11-13T18:21:23.233Z,101852.53
2022-11-13T18:23:04.257Z,101855.69
2022-11-13T18:24:40.423Z,101850.38
2022-11-13T18:26:19.985Z,101851.69
2022-11-13T18:27:55.380Z,101849.06
2022-11-13T18:29:31.002Z,101848.72
2022-11-13T18:31:13.494Z,101842.13
2022-11-13T18:32:50.756Z,101838.81
2022-11-13T18:34:27.505Z,101838.81
2022-11-13T18:36:04.317Z,101837.81
2022-11-13T18:37:39.511Z,101841.47
2022-11-13T18:39:16.924Z,101836.16
2022-11-13T18:41:01.225Z,101830.72
2022-11-13T18:42:36.909Z,101836.84
2022-11-13T18:44:13.258Z,101830.06
2022-11-13T18:45:57.250Z,101835.72
2022-11-13T18:47:32.814Z,101826.28
2022-11-13T18:49:09.745Z,101826.28
2022-11-13T18:50:55.768Z,101816.53
2022-11-13T18:52:30.716Z,101810.72
2022-11-13T18:54:09.829Z,101814.03
2022-11-13T18:55:46.914Z,101814.03